createdAt,value
2023-04-11T03:58:18.815Z,1.20
2023-04-11T03:59:18.911Z,1.00
2023-04-11T04:00:19.036Z,1.00
2023-04-11T04:01:19.123Z,1.10
2023-04-11T04:02:19.378Z,1.00
2023-04-11T04:03:19.559Z,1.10
2023-04-11T04:04:19.653Z,1.00
2023-04-11T04:05:19.680Z,1.10
2023-04-11T04:06:19.897Z,1.00
2023-04-11T04:07:20.030Z,1.10
2023-04-11T04:08:20.117Z,1.30
2023-04-11T04:09:20.248Z,1.00
2023-04-11T04:10:20.358Z,1.10
2023-04-11T04:11:20.488Z,1.20
2023-04-11T04:12:20.661Z,1.00
2023-04-11T04:13:21.677Z,1.20
2023-04-11T04:14:21.797Z,0.90
2023-04-11T04:15:20.945Z,1.10
2023-04-11T04:16:21.199Z,1.10
2023-04-11T04:17:21.220Z,1.10
2023-04-11T04:18:21.386Z,1.10
2023-04-11T04:19:21.419Z,1.30
2023-04-11T04:20:21.535Z,1.10
2023-04-11T04:21:21.751Z,1.30
2023-04-11T04:22:21.788Z,1.30
2023-04-11T04:23:21.873Z,1.10
2023-04-11T04:24:21.988Z,1.20
2023-04-11T04:25:23.546Z,1.10
2023-04-11T04:26:22.307Z,1.00
2023-04-11T04:27:22.539Z,1.20
2023-04-11T04:28:22.612Z,1.30
2023-04-11T04:29:22.754Z,1.10
2023-04-11T04:30:22.914Z,1.00
2023-04-11T04:31:23.120Z,1.10
2023-04-11T04:32:23.406Z,1.30
2023-04-11T04:33:23.256Z,1.00
2023-04-11T04:34:23.402Z,1.10
2023-04-11T04:35:23.534Z,1.00
2023-04-11T04:36:23.632Z,1.20
2023-04-11T04:37:23.761Z,1.40
2023-04-11T04:38:23.949Z,1.10
2023-04-11T04:39:24.060Z,1.20
2023-04-11T04:40:24.235Z,1.20
2023-04-11T04:41:24.463Z,1.20
2023-04-11T04:42:24.472Z,1.10
2023-04-11T04:43:24.643Z,1.40
2023-04-11T04:44:24.794Z,1.10
2023-04-11T04:45:24.905Z,1.20
2023-04-11T04:46:25.035Z,1.40
2023-04-11T04:47:25.252Z,1.20
2023-04-11T04:48:25.394Z,1.10
2023-04-11T04:49:25.504Z,1.10
2023-04-11T04:50:25.643Z,1.10
2023-04-11T04:51:25.838Z,1.10
2023-04-11T04:52:25.990Z,1.10
2023-04-11T04:53:26.062Z,1.20
2023-04-11T04:54:26.161Z,1.40
2023-04-11T04:55:26.309Z,1.20
2023-04-11T04:56:26.451Z,1.20
2023-04-11T04:57:26.589Z,1.20
2023-04-11T04:58:26.706Z,1.20
2023-04-11T04:59:26.832Z,1.10
2023-04-11T05:00:26.936Z,1.20
2023-04-11T05:01:27.213Z,1.20
2023-04-11T05:02:27.282Z,1.10
2023-04-11T05:03:27.609Z,1.00
2023-04-11T05:04:27.492Z,1.20
2023-04-11T05:05:27.581Z,1.20
2023-04-11T05:06:27.703Z,1.10
2023-04-11T05:07:27.812Z,1.30
2023-04-11T05:08:28.036Z,1.10
2023-04-11T05:09:28.097Z,0.90
2023-04-11T05:10:28.217Z,1.10
2023-04-11T05:11:28.353Z,0.90
2023-04-11T05:12:28.465Z,1.10
2023-04-11T05:13:28.600Z,1.10
2023-04-11T05:14:28.688Z,1.20
2023-04-11T05:15:28.809Z,1.10
2023-04-11T05:16:29.017Z,1.10
2023-04-11T05:17:29.110Z,1.00
2023-04-11T05:18:29.232Z,1.10
2023-04-11T05:19:29.350Z,1.00
2023-04-11T05:20:29.494Z,1.20
2023-04-11T05:21:29.608Z,1.00
2023-04-11T05:22:29.764Z,1.20
2023-04-11T05:23:29.939Z,1.30
2023-04-11T05:24:29.997Z,1.10
2023-04-11T05:25:30.161Z,1.30
2023-04-11T05:26:30.300Z,1.10
2023-04-11T05:27:30.398Z,1.00
2023-04-11T05:28:30.538Z,1.20
2023-04-11T05:29:30.628Z,1.20
2023-04-11T05:30:30.784Z,1.30
2023-04-11T05:31:30.874Z,1.20
2023-04-11T05:32:31.044Z,1.30
2023-04-11T05:33:31.160Z,1.30
2023-04-11T05:34:31.316Z,1.20
2023-04-11T05:35:31.432Z,1.20
2023-04-11T05:36:31.580Z,1.10
2023-04-11T05:37:31.758Z,1.30
2023-04-11T05:38:31.833Z,1.10
2023-04-11T05:39:31.975Z,1.20
2023-04-11T05:40:32.148Z,1.40
2023-04-11T05:41:32.301Z,1.10
2023-04-11T05:44:49.067Z,1.40
2023-04-11T05:45:49.199Z,1.50
2023-04-11T05:46:49.361Z,1.50
2023-04-11T05:47:49.586Z,1.40
2023-04-11T05:48:49.577Z,1.30
2023-04-11T05:49:49.776Z,1.40
2023-04-11T05:50:49.869Z,1.40
2023-04-11T05:51:50.007Z,1.40
2023-04-11T05:52:50.146Z,1.50
2023-04-11T05:53:50.320Z,1.50
2023-04-11T05:54:50.487Z,1.50
2023-04-11T05:55:50.554Z,1.40
2023-04-11T05:56:50.712Z,1.40
2023-04-11T05:57:50.855Z,1.40
2023-04-11T05:58:51.968Z,1.70
2023-04-11T05:59:51.101Z,1.70
2023-04-11T06:00:51.262Z,1.40
2023-04-11T06:01:51.385Z,1.50
2023-04-11T06:02:51.593Z,2.00
2023-04-11T06:03:52.579Z,1.50
2023-04-11T06:04:51.850Z,1.60
2023-04-11T06:05:51.924Z,1.80
2023-04-11T06:06:52.111Z,1.50
2023-04-11T06:07:52.248Z,1.60
2023-04-11T06:08:52.342Z,1.60
2023-04-11T06:09:52.520Z,1.40
2023-04-11T06:10:52.607Z,1.50
2023-04-11T06:11:52.769Z,1.70
2023-04-11T06:12:52.837Z,1.60
2023-04-11T06:13:54.198Z,1.60
2023-04-11T06:14:54.068Z,1.60
2023-04-11T06:15:53.318Z,1.50
2023-04-11T06:16:53.428Z,1.60
2023-04-11T06:17:53.630Z,1.70
2023-04-11T06:18:53.724Z,1.40
2023-04-11T06:19:53.858Z,1.60
2023-04-11T06:20:54.042Z,1.90
2023-04-11T06:21:54.177Z,1.80
2023-04-11T06:22:54.339Z,1.60
2023-04-11T06:23:54.691Z,1.70
2023-04-11T06:24:54.538Z,1.50
2023-04-11T06:25:54.647Z,2.00
2023-04-11T06:26:54.822Z,2.00
2023-04-11T06:27:54.975Z,1.60
2023-04-11T06:28:55.154Z,2.00
2023-04-11T06:29:55.234Z,1.80
2023-04-11T06:30:55.418Z,1.50
2023-04-11T06:31:55.514Z,1.80
2023-04-11T06:32:55.722Z,1.70
2023-04-11T06:33:56.089Z,1.80
2023-04-11T06:34:56.017Z,1.70
2023-04-11T06:35:56.123Z,1.90
2023-04-11T06:36:56.171Z,1.90
2023-04-11T06:37:56.377Z,2.00
2023-04-11T06:38:56.519Z,2.00
2023-04-11T06:39:56.604Z,1.90
2023-04-11T06:40:56.791Z,1.80
2023-04-11T06:41:56.964Z,1.70
2023-04-11T06:42:57.068Z,1.70
2023-04-11T06:43:57.460Z,1.70
2023-04-11T06:44:57.373Z,1.90
2023-04-11T06:45:57.551Z,2.00
2023-04-11T06:46:57.747Z,2.00
2023-04-11T06:47:57.826Z,1.90
2023-04-11T06:48:57.871Z,1.60
2023-04-11T06:49:58.011Z,1.70
2023-04-11T06:50:58.093Z,2.00
2023-04-11T06:51:58.281Z,1.60
2023-04-11T06:52:58.364Z,1.90
2023-04-11T06:53:58.518Z,1.60
2023-04-11T06:54:58.607Z,1.40
2023-04-11T06:55:58.688Z,1.70
2023-04-11T06:56:59.791Z,1.90
2023-04-11T06:57:58.960Z,1.50
2023-04-11T06:58:59.096Z,1.50
2023-04-11T06:59:59.157Z,1.60
2023-04-11T07:00:59.301Z,1.60
2023-04-11T07:01:59.635Z,1.50
2023-04-11T07:03:00.527Z,1.60
2023-04-11T07:04:00.085Z,1.80
2023-04-11T07:04:59.846Z,1.60
2023-04-11T07:06:00.019Z,1.30
2023-04-11T07:07:00.134Z,1.50
2023-04-11T07:08:00.316Z,1.70
2023-04-11T07:09:00.377Z,1.30
2023-04-11T07:10:00.528Z,1.80
2023-04-11T07:11:00.764Z,1.50
2023-04-11T07:12:00.765Z,1.50
2023-04-11T07:13:00.987Z,1.60
2023-04-11T07:14:01.063Z,1.50
2023-04-11T07:15:01.226Z,1.70
2023-04-11T07:16:01.335Z,1.70
2023-04-11T07:17:01.456Z,1.30
2023-04-11T07:18:02.611Z,1.50
2023-04-11T07:19:01.741Z,1.30
2023-04-11T07:20:01.998Z,1.50
2023-04-11T07:21:02.053Z,1.60
2023-04-11T07:22:02.206Z,1.60
2023-04-11T07:23:02.370Z,1.40
2023-04-11T07:24:02.507Z,1.30
2023-04-11T07:25:02.670Z,1.50
2023-04-11T07:26:02.731Z,1.20
2023-04-11T07:27:02.850Z,1.30
2023-04-11T07:28:03.052Z,1.50
2023-04-11T07:29:03.162Z,1.40
2023-04-11T07:30:03.282Z,1.30
2023-04-11T07:31:03.479Z,1.40
2023-04-11T07:32:03.590Z,1.30
2023-04-11T07:33:03.927Z,1.30
2023-04-11T07:34:03.923Z,1.10
2023-04-11T07:35:04.013Z,1.40
2023-04-11T07:36:04.275Z,1.40
2023-04-11T07:37:04.310Z,1.30
2023-04-11T07:38:04.412Z,1.40
2023-04-11T07:39:04.572Z,1.50
2023-04-11T07:40:04.630Z,1.20
2023-04-11T07:41:05.008Z,1.20
2023-04-11T07:42:04.878Z,1.30
2023-04-11T07:43:05.052Z,1.30
2023-04-11T07:44:05.193Z,1.30
2023-04-11T07:45:05.371Z,1.50
2023-04-11T07:46:05.526Z,1.20
2023-04-11T07:47:05.617Z,1.20
2023-04-11T07:48:05.733Z,1.30
2023-04-11T07:49:05.832Z,1.20
2023-04-11T07:52:22.703Z,1.20
2023-04-11T07:53:22.843Z,1.20
2023-04-11T07:54:23.009Z,1.20
2023-04-11T07:55:23.157Z,1.10
2023-04-11T07:56:23.294Z,1.30
2023-04-11T07:57:23.472Z,1.30
2023-04-11T07:58:23.598Z,1.10
2023-04-11T07:59:23.819Z,1.00
2023-04-11T08:00:23.860Z,1.10
2023-04-11T08:01:24.041Z,1.20
2023-04-11T08:02:24.194Z,1.30
2023-04-11T08:03:24.506Z,1.00
2023-04-11T08:04:24.578Z,1.10
2023-04-11T08:05:24.703Z,1.10
2023-04-11T08:06:24.755Z,1.00
2023-04-11T08:07:25.004Z,1.10
2023-04-11T08:08:25.026Z,1.00
2023-04-11T08:09:25.228Z,1.10
2023-04-11T08:10:25.349Z,1.30
2023-04-11T08:11:25.480Z,1.20
2023-04-11T08:12:25.618Z,1.00
2023-04-11T08:13:25.706Z,1.00
2023-04-11T08:14:25.853Z,1.10
2023-04-11T08:15:25.995Z,1.20
2023-04-11T08:16:26.185Z,1.20
2023-04-11T08:17:28.700Z,1.30
2023-04-11T08:18:26.510Z,1.00
2023-04-11T08:19:26.573Z,1.10
2023-04-11T08:20:47.716Z,1.10
2023-04-11T08:21:26.886Z,1.00
2023-04-11T08:22:26.951Z,1.10
2023-04-11T08:23:27.114Z,0.80
2023-04-11T08:24:27.275Z,1.10
2023-04-11T08:25:27.409Z,1.00
2023-04-11T08:26:27.586Z,1.10
2023-04-11T08:27:27.779Z,0.90
2023-04-11T08:28:27.857Z,1.00
2023-04-11T08:29:28.018Z,0.90
2023-04-11T08:30:28.153Z,1.00
2023-04-11T08:31:28.293Z,1.00
2023-04-11T08:32:28.414Z,0.90
2023-04-11T08:33:28.506Z,0.80
2023-04-11T08:34:28.681Z,1.30
2023-04-11T08:35:28.840Z,0.90
2023-04-11T08:36:28.961Z,0.90
2023-04-11T08:37:29.086Z,0.90
2023-04-11T08:38:29.254Z,1.00
2023-04-11T08:39:29.392Z,1.10
2023-04-11T08:40:29.509Z,1.20
2023-04-11T08:41:29.677Z,0.80
2023-04-11T08:42:29.811Z,1.00
2023-04-11T08:43:29.948Z,0.90
2023-04-11T08:44:30.039Z,0.80
2023-04-11T08:45:30.208Z,1.10
2023-04-11T08:46:30.412Z,0.80
2023-04-11T08:47:30.445Z,1.20
2023-04-11T08:48:30.570Z,0.90
2023-04-11T08:49:30.717Z,0.80
2023-04-11T08:50:30.814Z,0.70
2023-04-11T08:51:30.942Z,0.90
2023-04-11T08:52:31.089Z,1.20
2023-04-11T08:53:31.215Z,0.90
2023-04-11T08:54:31.331Z,1.00
2023-04-11T08:55:31.439Z,1.00
2023-04-11T08:56:31.591Z,0.90
2023-04-11T08:57:31.902Z,0.90
2023-04-11T08:58:31.887Z,0.80
2023-04-11T08:59:31.978Z,0.90
2023-04-11T09:00:32.108Z,0.90
2023-04-11T09:01:32.532Z,0.90
2023-04-11T09:02:32.427Z,0.90
2023-04-11T09:03:32.531Z,0.90
2023-04-11T09:04:32.708Z,0.90
2023-04-11T09:05:32.748Z,0.80
2023-04-11T09:06:32.966Z,0.90
2023-04-11T09:07:33.024Z,0.90
2023-04-11T09:08:33.177Z,1.00
2023-04-11T09:09:33.338Z,0.90
2023-04-11T09:10:33.428Z,0.90
2023-04-11T09:11:33.543Z,0.90
2023-04-11T09:12:33.692Z,1.00
2023-04-11T09:13:33.869Z,0.80
2023-04-11T09:14:34.241Z,1.00
2023-04-11T09:15:34.177Z,0.80
2023-04-11T09:16:34.300Z,1.00
2023-04-11T09:17:34.487Z,0.90
2023-04-11T09:18:34.495Z,1.00
2023-04-11T09:19:34.694Z,0.90
2023-04-11T09:20:34.771Z,1.00
2023-04-11T09:21:34.893Z,0.90
2023-04-11T09:22:35.014Z,0.90
2023-04-11T09:23:35.127Z,0.90
2023-04-11T09:24:36.250Z,0.90
2023-04-11T09:25:35.366Z,0.90
2023-04-11T09:26:35.498Z,1.00
2023-04-11T09:27:35.641Z,0.90
2023-04-11T09:28:35.742Z,1.10
2023-04-11T09:29:35.884Z,0.90
2023-04-11T09:30:36.013Z,1.10
2023-04-11T09:31:36.203Z,0.80
2023-04-11T09:32:36.451Z,0.90
2023-04-11T09:33:36.416Z,0.90
2023-04-11T09:34:37.598Z,1.00
2023-04-11T09:35:36.725Z,0.90
2023-04-11T09:36:36.869Z,0.80
2023-04-11T09:37:37.015Z,0.90
2023-04-11T09:39:52.681Z,0.70
2023-04-11T09:40:52.721Z,0.80
2023-04-11T09:41:52.842Z,0.80
2023-04-11T09:42:53.040Z,0.90
2023-04-11T09:43:53.145Z,0.80
2023-04-11T09:44:53.237Z,0.90
2023-04-11T09:45:54.736Z,0.90
2023-04-11T09:46:53.510Z,1.00
2023-04-11T09:47:53.715Z,0.80
2023-04-11T09:48:53.764Z,0.90
2023-04-11T09:49:53.896Z,0.90
2023-04-11T09:50:54.025Z,1.10
2023-04-11T09:51:54.192Z,0.90
2023-04-11T09:52:55.369Z,1.00
2023-04-11T09:53:54.738Z,0.90
2023-04-11T09:54:54.550Z,0.80
2023-04-11T09:55:54.669Z,0.70
2023-04-11T09:56:54.822Z,0.80
2023-04-11T09:57:54.966Z,0.80
2023-04-11T09:58:55.308Z,0.80
2023-04-11T09:59:55.229Z,0.70
2023-04-11T10:00:55.352Z,0.90
2023-04-11T10:01:55.601Z,0.90
2023-04-11T10:12:49.129Z,0.70
2023-04-11T10:13:49.202Z,0.80
2023-04-11T10:14:49.298Z,0.80
2023-04-11T10:15:49.523Z,0.80
2023-04-11T10:16:49.676Z,0.90
2023-04-11T10:17:49.807Z,0.80
2023-04-11T10:18:49.937Z,0.80
2023-04-11T10:19:51.024Z,0.80
2023-04-11T10:20:50.381Z,0.80
2023-04-11T10:21:50.413Z,0.70
2023-04-11T10:22:50.568Z,0.90
2023-04-11T10:23:50.681Z,0.80
2023-04-11T10:24:50.799Z,0.80
2023-04-11T10:25:50.957Z,0.70
2023-04-11T10:26:51.067Z,0.90
2023-04-11T10:27:51.224Z,0.60
2023-04-11T10:28:51.424Z,0.70
2023-04-11T10:29:51.931Z,1.00
2023-04-11T10:30:51.623Z,0.70
2023-04-11T10:31:51.800Z,0.70
2023-04-11T10:32:52.003Z,0.80
2023-04-11T10:33:52.018Z,0.80
2023-04-11T10:34:52.167Z,0.80
2023-04-11T10:35:52.333Z,0.70
2023-04-11T10:36:52.448Z,0.70
2023-04-11T10:37:52.576Z,0.90
2023-04-11T10:38:52.711Z,0.80
2023-04-11T10:39:52.889Z,0.90
2023-04-11T10:40:53.005Z,0.90
2023-04-11T10:41:53.139Z,0.70
2023-04-11T10:42:53.267Z,0.80
2023-04-11T10:43:53.406Z,0.80
2023-04-11T10:44:53.520Z,0.80
2023-04-11T10:45:53.656Z,0.80
2023-04-11T10:46:54.263Z,0.70
2023-04-11T10:47:53.999Z,1.00
2023-04-11T10:48:54.157Z,0.70
2023-04-11T10:49:54.303Z,0.80
2023-04-11T10:50:54.440Z,0.70
2023-04-11T10:51:54.571Z,0.60
2023-04-11T10:52:54.692Z,1.00
2023-04-11T10:53:54.862Z,0.70
2023-04-11T10:54:54.977Z,0.70
2023-04-11T10:55:55.119Z,0.80
2023-04-11T10:56:55.264Z,0.70
2023-04-11T10:57:55.353Z,0.80
2023-04-11T10:58:55.495Z,0.80
2023-04-11T10:59:55.648Z,0.80
2023-04-11T11:00:55.803Z,0.80
2023-04-11T11:01:56.125Z,0.70
2023-04-11T11:02:56.198Z,0.90
2023-04-11T11:03:56.498Z,0.80
2023-04-11T11:04:56.421Z,0.70
2023-04-11T11:05:56.421Z,0.90
2023-04-11T11:06:57.380Z,0.70
2023-04-11T11:07:56.699Z,0.90
2023-04-11T11:08:57.763Z,0.70
2023-04-11T11:09:57.007Z,0.90
2023-04-11T11:10:57.708Z,0.80
2023-04-11T11:11:57.381Z,0.70
2023-04-11T11:12:57.421Z,0.70
2023-04-11T11:13:57.886Z,0.80
2023-04-11T11:14:57.708Z,0.90
2023-04-11T11:15:57.821Z,0.70
2023-04-11T11:16:57.996Z,0.70
2023-04-11T11:17:59.188Z,1.10
2023-04-11T11:18:58.238Z,0.70
2023-04-11T11:19:58.411Z,0.90
2023-04-11T11:20:58.478Z,0.70
2023-04-11T11:21:58.609Z,0.70
2023-04-11T11:22:58.785Z,0.60
2023-04-11T11:23:59.052Z,0.70
2023-04-11T11:24:59.012Z,0.70
2023-04-11T11:25:59.127Z,0.70
2023-04-11T11:26:59.270Z,0.90
2023-04-11T11:27:59.374Z,0.80
2023-04-11T11:28:59.576Z,0.80
2023-04-11T11:29:59.622Z,0.90
2023-04-11T11:30:59.774Z,0.80
2023-04-11T11:31:59.936Z,0.70
2023-04-11T11:33:00.134Z,0.80
2023-04-11T11:34:21.315Z,0.70
2023-04-11T11:35:01.349Z,0.70
2023-04-11T11:36:00.466Z,0.70
2023-04-11T11:37:00.669Z,0.80
2023-04-11T11:38:00.721Z,0.70
2023-04-11T11:39:00.897Z,0.90
2023-04-11T11:40:01.035Z,0.80
2023-04-11T11:41:01.174Z,0.70
2023-04-11T11:42:02.298Z,0.70
2023-04-11T11:43:01.424Z,0.70
2023-04-11T11:44:01.532Z,0.60
2023-04-11T11:45:01.696Z,0.80
2023-04-11T11:46:02.062Z,0.60
2023-04-11T11:47:01.987Z,0.90
2023-04-11T11:48:02.120Z,0.80
2023-04-11T11:49:02.341Z,0.80
2023-04-11T11:50:02.395Z,0.80
2023-04-11T11:51:02.555Z,0.60
2023-04-11T11:52:02.715Z,0.80
2023-04-11T11:53:02.877Z,0.70
2023-04-11T11:54:03.004Z,0.70
2023-04-11T11:55:03.167Z,0.70
2023-04-11T11:56:03.275Z,1.00
2023-04-11T11:57:03.434Z,0.90
2023-04-11T11:58:03.559Z,0.70
2023-04-11T11:59:03.673Z,0.70
2023-04-11T12:00:03.876Z,0.70
2023-04-11T12:01:03.951Z,0.80
2023-04-11T12:02:04.163Z,0.60
2023-04-11T12:03:04.440Z,0.60
2023-04-11T12:04:04.637Z,0.70
2023-04-11T12:05:04.766Z,0.80
2023-04-11T12:06:04.696Z,0.60
2023-04-11T12:07:04.873Z,0.70
2023-04-11T12:08:05.011Z,0.70
2023-04-11T12:09:05.144Z,0.60
2023-04-11T12:10:05.269Z,0.60
2023-04-11T12:11:05.439Z,0.70
2023-04-11T12:12:05.556Z,0.70
2023-04-11T12:13:05.681Z,0.70
2023-04-11T12:14:05.815Z,0.70
2023-04-11T12:15:05.954Z,0.70
2023-04-11T12:16:06.122Z,0.60
2023-04-11T12:17:06.244Z,0.70
2023-04-11T12:18:06.459Z,0.80
2023-04-11T12:19:06.514Z,0.80
2023-04-11T12:20:06.654Z,0.70
2023-04-11T12:21:06.813Z,0.60
2023-04-11T12:22:06.952Z,0.70
2023-04-11T12:23:07.102Z,0.70
2023-04-11T12:24:07.251Z,0.60
2023-04-11T12:25:07.421Z,0.60
2023-04-11T12:26:07.544Z,0.70
2023-04-11T12:27:08.945Z,0.70
2023-04-11T12:28:07.763Z,0.70
2023-04-11T12:29:07.921Z,0.70
2023-04-11T12:30:08.084Z,0.70
2023-04-11T12:31:08.177Z,0.70
2023-04-11T12:32:08.270Z,0.80
2023-04-11T12:33:08.416Z,0.80
2023-04-11T12:34:08.560Z,0.70
2023-04-11T12:35:08.662Z,0.70
2023-04-11T12:36:08.844Z,0.80
2023-04-11T12:37:09.005Z,0.80
2023-04-11T12:38:10.113Z,0.80
2023-04-11T12:39:09.221Z,0.90
2023-04-11T12:40:09.350Z,0.70
2023-04-11T12:42:10.098Z,0.70
2023-04-11T12:43:09.757Z,0.80
2023-04-11T12:44:09.869Z,0.80
2023-04-11T12:45:09.970Z,0.90
2023-04-11T12:46:10.103Z,1.10
2023-04-11T12:47:10.220Z,0.90
2023-04-11T12:48:10.494Z,0.90
2023-04-11T12:49:10.550Z,1.10
2023-04-11T12:50:10.685Z,1.20
2023-04-11T12:51:10.817Z,1.00
2023-04-11T12:52:10.904Z,1.00
2023-04-11T12:53:11.042Z,1.00
2023-04-11T12:54:11.167Z,0.90
2023-04-11T12:55:11.357Z,1.20
2023-04-11T12:56:11.473Z,1.30
2023-04-11T12:57:11.590Z,1.40
2023-04-11T12:58:11.759Z,1.30
2023-04-11T12:59:11.899Z,1.10
2023-04-11T13:00:12.060Z,1.30
2023-04-11T13:01:12.167Z,1.50
2023-04-11T13:02:12.434Z,1.70
2023-04-11T13:03:12.662Z,1.60
2023-04-11T13:04:12.893Z,1.20
2023-04-11T13:05:12.849Z,0.90
2023-04-11T13:06:12.972Z,1.70
2023-04-11T13:07:13.045Z,1.90
2023-04-11T13:08:13.198Z,1.50
2023-04-11T13:09:13.345Z,1.50
2023-04-11T13:10:13.703Z,1.50
2023-04-11T13:11:13.667Z,1.30
2023-04-11T13:12:13.788Z,1.60
2023-04-11T13:13:18.533Z,2.10
2023-04-11T13:14:15.084Z,2.30
2023-04-11T13:15:14.279Z,2.30
2023-04-11T13:16:14.419Z,1.60
2023-04-11T13:17:14.513Z,1.30
2023-04-11T13:18:14.655Z,1.50
2023-04-11T13:19:14.696Z,2.10
2023-04-11T13:20:14.982Z,2.20
2023-04-11T13:21:14.955Z,1.70
2023-04-11T13:22:15.125Z,1.70
2023-04-11T13:23:17.238Z,1.50
2023-04-11T13:24:15.321Z,1.70
2023-04-11T13:25:15.480Z,1.60
2023-04-11T13:26:15.639Z,1.70
2023-04-11T13:27:15.828Z,1.90
2023-04-11T13:28:15.931Z,1.50
2023-04-11T13:29:16.107Z,1.80
2023-04-11T13:30:16.237Z,1.40
2023-04-11T13:31:16.368Z,1.60
2023-04-11T13:32:16.472Z,1.40
2023-04-11T13:33:16.595Z,1.80
2023-04-11T13:34:16.714Z,1.80
2023-04-11T13:35:16.853Z,1.80
2023-04-11T13:36:16.959Z,1.60
2023-04-11T13:37:17.208Z,1.40
2023-04-11T13:38:17.180Z,1.50
2023-04-11T13:39:17.307Z,1.50
2023-04-11T13:40:17.435Z,1.60
2023-04-11T13:41:17.611Z,1.70
2023-04-11T13:42:17.738Z,1.40
2023-04-11T13:43:17.808Z,1.40
2023-04-11T13:44:17.951Z,1.30
2023-04-11T13:45:18.146Z,1.50
2023-04-11T13:46:18.216Z,2.00
2023-04-11T13:47:18.384Z,1.70
2023-04-11T13:48:18.488Z,1.70
2023-04-11T13:49:18.606Z,1.70
2023-04-11T13:50:18.749Z,1.90
2023-04-11T13:51:18.854Z,1.90
2023-04-11T13:52:19.029Z,1.70
2023-04-11T13:53:19.144Z,1.70
2023-04-11T13:54:19.299Z,1.50
2023-04-11T13:55:19.444Z,1.70
2023-04-11T13:56:19.570Z,1.90
2023-04-11T13:57:19.697Z,2.00
2023-04-11T13:58:19.831Z,1.70
2023-04-11T13:59:20.007Z,1.80
2023-04-11T14:00:20.146Z,1.60
2023-04-11T14:01:20.324Z,2.00
2023-04-11T14:02:20.510Z,1.50
2023-04-11T14:03:20.666Z,1.80
2023-04-11T14:04:20.802Z,1.70
2023-04-11T14:05:20.853Z,1.90
2023-04-11T14:06:20.968Z,1.60
2023-04-11T14:07:21.130Z,1.50
2023-04-11T14:08:21.260Z,1.50
2023-04-11T14:09:21.348Z,1.90
2023-04-11T14:10:21.499Z,2.00
2023-04-11T14:11:21.647Z,1.60
2023-04-11T14:12:21.745Z,1.50
2023-04-11T14:13:21.874Z,1.80
2023-04-11T14:14:22.035Z,1.60
2023-04-11T14:15:22.172Z,1.70
2023-04-11T14:16:22.307Z,1.70
2023-04-11T14:17:22.465Z,1.70
2023-04-11T14:18:22.584Z,1.60
2023-04-11T14:19:22.763Z,1.80
2023-04-11T14:20:22.880Z,1.60
2023-04-11T14:21:23.029Z,1.40
2023-04-11T14:22:23.109Z,1.80
2023-04-11T14:23:23.281Z,1.50
2023-04-11T14:24:23.420Z,1.80
2023-04-11T14:25:23.579Z,1.70
2023-04-11T14:26:23.745Z,1.50
2023-04-11T14:27:23.909Z,1.40
2023-04-11T14:28:26.628Z,1.80
2023-04-11T14:29:24.124Z,1.50
2023-04-11T14:30:24.457Z,1.80
2023-04-11T14:31:24.604Z,1.50
2023-04-11T14:32:24.640Z,1.80
2023-04-11T14:33:24.767Z,1.50
2023-04-11T14:34:24.832Z,1.50
2023-04-11T14:35:24.973Z,1.50
2023-04-11T14:36:25.146Z,1.40
2023-04-11T14:37:25.254Z,1.60
2023-04-11T14:38:25.392Z,1.50
2023-04-11T14:39:25.546Z,1.70
2023-04-11T14:40:26.639Z,1.50
2023-04-11T14:41:25.807Z,1.40
2023-04-11T14:42:25.936Z,1.50
2023-04-11T14:43:26.054Z,1.70
2023-04-11T14:44:27.034Z,1.60
2023-04-11T14:45:26.289Z,1.30
2023-04-11T14:46:26.528Z,1.60
2023-04-11T14:47:26.638Z,2.00
2023-04-11T14:48:26.763Z,1.40
2023-04-11T14:49:26.916Z,1.50
2023-04-11T14:50:27.803Z,1.50
2023-04-11T14:51:27.194Z,1.50
2023-04-11T14:52:27.287Z,1.50
2023-04-11T14:53:27.460Z,1.60
2023-04-11T14:54:27.576Z,1.60
2023-04-11T14:55:27.742Z,1.60
2023-04-11T14:56:27.783Z,1.60
2023-04-11T14:57:27.927Z,1.50
2023-04-11T14:58:28.042Z,1.60
2023-04-11T14:59:28.185Z,1.50
2023-04-11T15:00:28.353Z,1.50
2023-04-11T15:01:28.470Z,1.30
2023-04-11T15:02:29.893Z,1.60
2023-04-11T15:03:29.010Z,1.30
2023-04-11T15:04:29.017Z,1.20
2023-04-11T15:05:28.979Z,1.20
2023-04-11T15:06:29.136Z,1.50
2023-04-11T15:07:29.304Z,1.60
2023-04-11T15:08:29.392Z,1.50
2023-04-11T15:09:29.561Z,1.40
2023-04-11T15:10:29.754Z,1.50
2023-04-11T15:11:29.840Z,1.30
2023-04-11T15:12:29.979Z,1.40
2023-04-11T15:13:30.091Z,1.30
2023-04-11T15:14:30.242Z,1.10
2023-04-11T15:15:30.416Z,1.40
2023-04-11T15:16:30.501Z,1.40
2023-04-11T15:17:30.721Z,1.30
2023-04-11T15:18:30.685Z,1.30
2023-04-11T15:19:30.825Z,1.50
2023-04-11T15:20:30.981Z,1.50
2023-04-11T15:21:31.085Z,1.20
2023-04-11T15:22:31.360Z,1.20
2023-04-11T15:23:31.391Z,1.20
2023-04-11T15:24:31.534Z,1.10
2023-04-11T15:25:31.688Z,1.30
2023-04-11T15:26:31.838Z,1.30
2023-04-11T15:27:32.006Z,1.30
2023-04-11T15:28:32.038Z,1.50
2023-04-11T15:29:32.197Z,1.30
2023-04-11T15:30:32.312Z,1.10
2023-04-11T15:31:32.601Z,1.30
2023-04-11T15:32:32.803Z,1.30
2023-04-11T15:34:48.332Z,1.50
2023-04-11T15:35:48.499Z,1.30
2023-04-11T15:36:48.600Z,1.20
2023-04-11T15:37:48.714Z,1.30
2023-04-11T15:38:48.807Z,1.30
2023-04-11T15:39:48.957Z,1.20
2023-04-11T15:40:49.067Z,1.30
2023-04-11T15:41:49.250Z,1.10
2023-04-11T15:42:49.285Z,1.40
2023-04-11T15:43:49.420Z,1.30
2023-04-11T15:44:49.535Z,1.20
2023-04-11T15:45:49.670Z,1.10
2023-04-11T15:46:49.849Z,1.00
2023-04-11T15:47:49.970Z,1.20
2023-04-11T15:48:50.084Z,1.00
2023-04-11T15:49:50.204Z,1.40
2023-04-11T15:50:50.328Z,1.20
2023-04-11T15:51:50.452Z,1.00
2023-04-11T15:52:50.558Z,1.20
2023-04-11T15:53:50.695Z,1.30
2023-04-11T15:54:51.781Z,1.50
2023-04-11T15:55:50.925Z,0.80
2023-04-11T15:56:51.065Z,1.00
2023-04-11T15:57:51.228Z,1.10
2023-04-11T15:58:51.328Z,1.00
2023-04-11T15:59:51.510Z,1.30
2023-04-11T16:00:51.606Z,1.10
2023-04-11T16:12:02.274Z,1.00
2023-04-11T16:13:02.371Z,0.90
2023-04-11T16:14:02.737Z,1.20
2023-04-11T16:15:02.627Z,1.20
2023-04-11T16:16:02.796Z,1.10
2023-04-11T16:17:03.836Z,1.00
2023-04-11T16:18:03.102Z,0.90
2023-04-11T16:19:03.198Z,1.10
2023-04-11T16:20:03.355Z,1.10
2023-04-11T16:21:03.493Z,1.00
2023-04-11T16:22:03.634Z,1.20
2023-04-11T16:23:03.778Z,1.20
2023-04-11T16:24:03.946Z,1.10
2023-04-11T16:25:03.993Z,0.90
2023-04-11T16:26:04.136Z,1.10
2023-04-11T16:27:04.229Z,1.10
2023-04-11T16:28:04.430Z,1.00
2023-04-11T16:29:04.537Z,1.10
2023-04-11T16:30:04.698Z,1.20
2023-04-11T16:31:04.887Z,0.90
2023-04-11T16:32:05.032Z,1.10
2023-04-11T16:33:05.158Z,1.20
2023-04-11T16:34:05.279Z,1.00
2023-04-11T16:35:05.399Z,1.00
2023-04-11T16:36:05.618Z,1.30
2023-04-11T16:37:05.697Z,1.20
2023-04-11T16:38:05.814Z,1.30
2023-04-11T16:39:05.940Z,1.20
2023-04-11T16:40:06.072Z,1.20
2023-04-11T16:41:06.178Z,1.20
2023-04-11T16:42:06.319Z,1.10
2023-04-11T16:43:06.500Z,1.20
2023-04-11T16:44:06.631Z,1.00
2023-04-11T16:45:06.731Z,1.50
2023-04-11T16:46:06.937Z,0.90
2023-04-11T16:47:06.984Z,0.90
2023-04-11T16:48:07.242Z,1.00
2023-04-11T16:49:07.301Z,1.30
2023-04-11T16:50:07.484Z,1.20
2023-04-11T16:51:07.586Z,1.00
2023-04-11T16:52:07.763Z,0.90
2023-04-11T16:53:07.927Z,1.00
2023-04-11T16:54:08.049Z,1.10
2023-04-11T16:55:08.147Z,1.00
2023-04-11T16:56:08.277Z,1.00
2023-04-11T16:57:08.442Z,1.00
2023-04-11T16:58:08.875Z,1.10
2023-04-11T16:59:08.661Z,0.90
2023-04-11T17:00:08.781Z,1.00
2023-04-11T17:01:08.926Z,0.90
2023-04-11T17:02:09.155Z,1.10
2023-04-11T17:03:09.342Z,1.00
2023-04-11T17:04:09.484Z,1.10
2023-04-11T17:05:09.544Z,0.90
2023-04-11T17:06:09.675Z,0.90
2023-04-11T17:07:09.805Z,1.00
2023-04-11T17:08:09.950Z,0.90
2023-04-11T17:09:10.068Z,0.90
2023-04-11T17:10:10.199Z,1.00
2023-04-11T17:11:10.335Z,0.90
2023-04-11T17:12:10.485Z,1.00
2023-04-11T17:13:10.591Z,1.00
2023-04-11T17:14:10.703Z,1.00
2023-04-11T17:15:10.836Z,0.90
2023-04-11T17:16:11.018Z,1.00
2023-04-11T17:17:11.097Z,0.90
2023-04-11T17:18:11.209Z,1.00
2023-04-11T17:19:11.342Z,0.90
2023-04-11T17:20:11.433Z,0.90
2023-04-11T17:21:11.648Z,0.90
2023-04-11T17:22:11.770Z,0.90
2023-04-11T17:23:11.884Z,1.10
2023-04-11T17:24:12.038Z,1.00
2023-04-11T17:25:12.195Z,0.80
2023-04-11T17:26:12.236Z,0.90
2023-04-11T17:27:12.371Z,0.90
2023-04-11T17:28:12.496Z,0.90
2023-04-11T17:29:12.644Z,1.00
2023-04-11T17:30:12.784Z,1.10
2023-04-11T17:31:13.144Z,1.30
2023-04-11T17:32:13.094Z,1.10
2023-04-11T17:33:13.325Z,0.90
2023-04-11T17:34:14.331Z,0.90
2023-04-11T17:35:13.534Z,1.00
2023-04-11T17:36:13.725Z,1.00
2023-04-11T17:37:13.810Z,0.80
2023-04-11T17:38:14.836Z,0.90
2023-04-11T17:39:14.038Z,1.00
2023-04-11T17:40:14.306Z,1.10
2023-04-11T17:41:15.710Z,1.00
2023-04-11T17:42:14.531Z,0.90
2023-04-11T17:43:14.623Z,1.10
2023-04-11T17:44:14.759Z,0.90
2023-04-11T17:45:18.546Z,1.00
2023-04-11T17:46:15.055Z,1.00